createdAt,value
2019-02-02T00:00:35.649Z,2.50
2019-02-02T00:03:06.369Z,2.50
2019-02-02T00:05:35.448Z,2.50
2019-02-02T00:08:09.789Z,2.40
2019-02-02T00:10:38.821Z,2.50
2019-02-02T00:13:18.141Z,2.40
2019-02-02T00:15:47.238Z,2.50
2019-02-02T00:18:18.206Z,2.50
2019-02-02T00:20:52.270Z,2.40
2019-02-02T00:23:22.402Z,2.30
2019-02-02T00:25:57.505Z,2.30
2019-02-02T00:28:26.454Z,2.30
2019-02-02T00:30:57.463Z,2.30
2019-02-02T00:33:26.460Z,2.40
2019-02-02T00:35:55.470Z,2.20
2019-02-02T00:38:30.722Z,2.30
2019-02-02T00:41:00.697Z,2.40
2019-02-02T00:43:32.959Z,2.30
2019-02-02T00:46:08.921Z,2.20
2019-02-02T00:48:37.742Z,2.20
2019-02-02T00:51:06.803Z,2.30
2019-02-02T00:53:35.887Z,2.30
2019-02-02T00:56:05.212Z,2.20
2019-02-02T00:58:34.239Z,2.20
2019-02-02T01:01:04.949Z,2.20
2019-02-02T01:03:33.862Z,2.20
2019-02-02T01:06:04.732Z,2.20
2019-02-02T01:08:33.677Z,2.10
2019-02-02T01:11:04.565Z,2.20
2019-02-02T01:13:33.589Z,2.20
2019-02-02T01:16:02.675Z,2.20
2019-02-02T01:18:35.806Z,2.20
2019-02-02T01:21:06.969Z,2.10
2019-02-02T01:23:41.710Z,2.20
2019-02-02T01:26:17.455Z,2.10
2019-02-02T01:28:46.318Z,2.10
2019-02-02T01:31:25.406Z,2.10
2019-02-02T01:34:01.478Z,2.10
2019-02-02T01:36:30.562Z,2.20
2019-02-02T01:38:59.642Z,2.20
2019-02-02T01:41:44.058Z,2.10
2019-02-02T01:44:14.057Z,2.10
2019-02-02T01:46:44.065Z,2.10
2019-02-02T01:49:13.113Z,2.00
2019-02-02T01:51:51.050Z,2.00
2019-02-02T01:54:19.998Z,2.10
2019-02-02T01:56:48.946Z,2.10
2019-02-02T01:59:17.942Z,2.00
2019-02-02T02:01:46.857Z,2.10
2019-02-02T02:04:15.795Z,2.10
2019-02-02T02:06:44.844Z,2.10
2019-02-02T02:09:14.825Z,2.20
2019-02-02T02:11:43.917Z,2.20
2019-02-02T02:14:12.998Z,2.20
2019-02-02T02:16:42.947Z,2.20
2019-02-02T02:19:11.922Z,2.30
2019-02-02T02:21:40.924Z,2.30
2019-02-02T02:24:09.989Z,2.30
2019-02-02T02:26:39.076Z,2.30
2019-02-02T02:29:16.093Z,2.20
2019-02-02T02:31:52.250Z,2.30
2019-02-02T02:34:23.125Z,2.40
2019-02-02T02:36:55.152Z,2.40
2019-02-02T02:39:24.146Z,2.40
2019-02-02T02:42:00.152Z,2.40
2019-02-02T02:44:36.241Z,2.50
2019-02-02T02:47:05.224Z,2.50
2019-02-02T02:49:39.902Z,2.50
2019-02-02T02:52:09.949Z,2.60
2019-02-02T02:54:40.948Z,2.50
2019-02-02T02:57:15.916Z,2.50
2019-02-02T02:59:44.864Z,2.50
2019-02-02T03:02:16.089Z,2.40
2019-02-02T03:04:44.991Z,2.30
2019-02-02T03:07:21.796Z,2.30
2019-02-02T03:09:54.769Z,2.40
2019-02-02T03:12:23.684Z,2.40
2019-02-02T03:15:02.670Z,2.30
2019-02-02T03:17:32.584Z,2.30
2019-02-02T03:20:02.487Z,2.30
2019-02-02T03:22:31.586Z,2.30
2019-02-02T03:25:00.605Z,2.30
2019-02-02T03:27:29.652Z,2.30
2019-02-02T03:29:58.493Z,2.30
2019-02-02T03:32:29.683Z,2.30
2019-02-02T03:34:59.658Z,2.30
2019-02-02T03:37:30.545Z,2.30
2019-02-02T03:40:08.205Z,2.20
2019-02-02T03:42:37.630Z,2.30
2019-02-02T03:45:14.294Z,2.20
2019-02-02T03:47:45.478Z,2.10
2019-02-02T03:50:15.594Z,2.10
2019-02-02T03:52:44.604Z,2.10
2019-02-02T03:55:14.206Z,2.10
2019-02-02T03:57:43.320Z,2.10
2019-02-02T04:00:15.177Z,2.10
2019-02-02T04:02:44.658Z,2.20
2019-02-02T04:05:18.857Z,2.10
2019-02-02T04:07:48.882Z,2.20
2019-02-02T04:10:17.937Z,2.20
2019-02-02T04:12:46.936Z,2.10
2019-02-02T04:15:17.242Z,2.20
2019-02-02T04:17:46.351Z,2.20
2019-02-02T04:20:17.280Z,2.30
2019-02-02T04:22:52.397Z,2.30
2019-02-02T04:25:28.489Z,2.30
2019-02-02T04:27:57.465Z,2.30
2019-02-02T04:30:26.958Z,2.30
2019-02-02T04:32:56.005Z,2.30
2019-02-02T04:35:24.981Z,2.20
2019-02-02T04:37:53.973Z,2.20
2019-02-02T04:40:23.886Z,2.20
2019-02-02T04:42:52.791Z,2.20
2019-02-02T04:45:21.757Z,2.20
2019-02-02T04:47:51.273Z,2.20
2019-02-02T04:50:20.261Z,2.30
2019-02-02T04:52:49.233Z,2.30
2019-02-02T04:55:18.990Z,2.30
2019-02-02T04:57:48.240Z,2.30
2019-02-02T05:00:35.316Z,2.30
2019-02-02T05:03:04.424Z,2.30
2019-02-02T05:05:33.309Z,2.40
2019-02-02T05:08:02.230Z,2.20
2019-02-02T05:10:31.113Z,2.10
2019-02-02T05:13:00.074Z,2.10
2019-02-02T05:15:28.978Z,2.00
2019-02-02T05:17:57.800Z,2.10
2019-02-02T05:20:26.933Z,2.00
2019-02-02T05:22:55.890Z,2.00
2019-02-02T05:25:24.844Z,2.00
2019-02-02T05:27:53.665Z,1.90
2019-02-02T05:30:25.223Z,2.00
2019-02-02T05:32:54.169Z,1.90
2019-02-02T05:35:23.137Z,2.00
2019-02-02T05:37:52.283Z,2.00
2019-02-02T05:40:21.290Z,1.90
2019-02-02T05:42:50.287Z,2.00
2019-02-02T05:45:20.253Z,2.00
2019-02-02T05:47:49.398Z,1.90
2019-02-02T05:50:20.769Z,1.80
2019-02-02T05:52:50.004Z,1.80
2019-02-02T05:55:19.172Z,1.90
2019-02-02T05:57:48.190Z,1.90
2019-02-02T06:00:22.509Z,1.90
2019-02-02T06:02:51.621Z,2.00
2019-02-02T06:05:20.630Z,2.20
2019-02-02T06:07:49.857Z,2.20
2019-02-02T06:10:18.860Z,2.30
2019-02-02T06:12:47.820Z,2.30
2019-02-02T06:15:17.006Z,2.30
2019-02-02T06:17:45.976Z,2.30
2019-02-02T06:20:15.313Z,2.30
2019-02-02T06:22:44.577Z,2.20
2019-02-02T06:25:13.558Z,2.20
2019-02-02T06:27:42.656Z,2.20
2019-02-02T06:30:14.540Z,2.20
2019-02-02T06:32:43.521Z,2.10
2019-02-02T06:35:13.565Z,2.10
2019-02-02T06:37:46.162Z,2.10
2019-02-02T06:40:15.216Z,2.00
2019-02-02T06:42:44.300Z,2.00
2019-02-02T06:45:20.577Z,2.00
2019-02-02T06:47:49.552Z,2.00
2019-02-02T06:50:18.514Z,2.00
2019-02-02T06:52:47.497Z,2.00
2019-02-02T06:55:16.514Z,1.90
2019-02-02T06:57:45.517Z,1.90
2019-02-02T07:00:17.323Z,2.00
2019-02-02T07:02:46.428Z,2.00
2019-02-02T07:05:17.468Z,2.00
2019-02-02T07:07:46.725Z,2.00
2019-02-02T07:10:18.410Z,2.00
2019-02-02T07:12:47.369Z,2.00
2019-02-02T07:15:16.660Z,2.10
2019-02-02T07:17:45.946Z,2.20
2019-02-02T07:20:15.509Z,2.30
2019-02-02T07:22:44.473Z,2.30
2019-02-02T07:25:13.530Z,2.30
2019-02-02T07:27:42.329Z,2.20
2019-02-02T07:30:28.421Z,2.30
2019-02-02T07:32:50.636Z,2.30
2019-02-02T07:35:19.609Z,2.40
2019-02-02T07:37:48.554Z,2.40
2019-02-02T07:40:18.129Z,2.50
2019-02-02T07:42:51.245Z,2.60
2019-02-02T07:45:22.529Z,2.60
2019-02-02T07:47:51.669Z,2.70
2019-02-02T07:50:36.009Z,2.80
2019-02-02T07:53:08.106Z,2.70
2019-02-02T07:55:37.118Z,2.80
2019-02-02T07:58:15.207Z,2.80
2019-02-02T08:00:44.227Z,2.80
2019-02-02T08:03:15.222Z,2.70
2019-02-02T08:05:50.266Z,2.70
2019-02-02T08:08:19.118Z,2.60
2019-02-02T08:10:48.048Z,2.60
2019-02-02T08:13:17.150Z,2.50
2019-02-02T08:15:46.249Z,2.50
2019-02-02T08:18:17.205Z,2.50
2019-02-02T08:20:46.228Z,2.50
2019-02-02T08:23:24.360Z,2.70
2019-02-02T08:25:54.385Z,2.80
2019-02-02T08:28:24.330Z,2.90
2019-02-02T08:31:05.353Z,3.10
2019-02-02T08:33:40.486Z,3.20
2019-02-02T08:36:11.735Z,3.20
2019-02-02T08:38:50.642Z,3.30
2019-02-02T08:41:33.986Z,3.30
2019-02-02T08:44:02.922Z,3.30
2019-02-02T08:46:31.896Z,3.40
2019-02-02T08:49:01.743Z,3.60
2019-02-02T08:51:31.646Z,3.80
2019-02-02T08:54:03.375Z,3.80
2019-02-02T08:56:31.359Z,3.90
2019-02-02T08:59:00.289Z,3.90
2019-02-02T09:01:29.239Z,4.10
2019-02-02T09:03:58.391Z,4.20
2019-02-02T09:06:38.311Z,4.20
2019-02-02T09:08:58.030Z,4.30
2019-02-02T09:11:26.888Z,4.40
2019-02-02T09:14:14.296Z,4.40
2019-02-02T09:16:43.189Z,4.60
2019-02-02T09:19:12.149Z,4.80
2019-02-02T09:21:42.066Z,5.00
2019-02-02T09:24:12.082Z,5.10
2019-02-02T09:26:41.073Z,5.30
2019-02-02T09:29:10.493Z,5.40
2019-02-02T09:31:40.694Z,5.40
2019-02-02T09:34:09.646Z,5.30
2019-02-02T09:36:38.742Z,5.30
2019-02-02T09:39:08.688Z,5.20
2019-02-02T09:41:40.596Z,5.00
2019-02-02T09:44:09.454Z,5.00
2019-02-02T09:46:38.574Z,4.90
2019-02-02T09:49:07.496Z,4.80
2019-02-02T09:51:36.367Z,4.70
2019-02-02T09:54:05.501Z,4.70
2019-02-02T09:56:34.445Z,4.80
2019-02-02T09:59:04.277Z,4.80
2019-02-02T10:01:33.313Z,4.80
2019-02-02T10:04:05.452Z,4.80
2019-02-02T10:06:34.510Z,4.80
2019-02-02T10:09:04.267Z,4.80
2019-02-02T10:11:33.213Z,4.90
2019-02-02T10:14:02.254Z,4.80
2019-02-02T10:16:32.228Z,4.90
2019-02-02T10:19:03.217Z,4.90
2019-02-02T10:21:44.250Z,4.90
2019-02-02T10:24:20.145Z,5.00
2019-02-02T10:26:56.467Z,5.00
2019-02-02T10:29:27.583Z,5.00
2019-02-02T10:31:57.730Z,5.10
2019-02-02T10:34:30.017Z,5.10
2019-02-02T10:36:59.993Z,5.10
2019-02-02T10:39:29.079Z,5.10
2019-02-02T10:41:58.177Z,5.00
2019-02-02T10:44:27.290Z,4.90
2019-02-02T10:46:56.622Z,4.90
2019-02-02T10:49:31.419Z,5.10
2019-02-02T10:52:00.527Z,5.20
2019-02-02T10:54:30.031Z,5.50
2019-02-02T10:57:01.113Z,5.60
2019-02-02T10:59:30.138Z,5.70
2019-02-02T11:02:01.256Z,5.80
2019-02-02T11:04:48.466Z,6.10
2019-02-02T11:07:19.781Z,6.20
2019-02-02T11:09:54.768Z,6.30
2019-02-02T11:12:27.123Z,6.50
2019-02-02T11:15:16.556Z,6.50
2019-02-02T11:17:47.684Z,6.60
2019-02-02T11:20:20.060Z,6.60
2019-02-02T11:23:20.176Z,6.70
2019-02-02T11:25:58.121Z,6.90
2019-02-02T11:28:34.975Z,7.00
2019-02-02T11:31:04.258Z,7.00
2019-02-02T11:33:40.712Z,7.10
2019-02-02T11:36:18.068Z,7.10
2019-02-02T11:38:52.735Z,6.90
2019-02-02T11:41:22.018Z,6.90
2019-02-02T11:43:55.270Z,6.90
2019-02-02T11:46:25.324Z,6.80
2019-02-02T11:49:04.281Z,6.60
2019-02-02T11:51:33.687Z,6.30
2019-02-02T11:54:02.687Z,5.80
2019-02-02T11:56:31.544Z,5.60
2019-02-02T11:59:00.670Z,5.50
2019-02-02T12:01:29.727Z,5.80
2019-02-02T12:03:58.849Z,5.80
2019-02-02T12:06:27.793Z,5.80
2019-02-02T12:08:56.957Z,5.70
2019-02-02T12:11:26.109Z,5.50
2019-02-02T12:13:55.080Z,5.60
2019-02-02T12:16:24.076Z,5.60
2019-02-02T12:18:52.975Z,5.60
2019-02-02T12:21:21.834Z,5.90
2019-02-02T12:23:50.737Z,6.10
2019-02-02T12:26:19.750Z,6.20
2019-02-02T12:28:48.678Z,6.40
2019-02-02T12:31:18.603Z,6.30
2019-02-02T12:33:47.504Z,6.10
2019-02-02T12:36:16.415Z,6.10
2019-02-02T12:38:45.331Z,6.00
2019-02-02T12:41:14.353Z,5.90
2019-02-02T12:43:43.462Z,6.00
2019-02-02T12:46:12.497Z,6.00
2019-02-02T12:48:41.437Z,5.80
2019-02-02T12:51:12.414Z,5.60
2019-02-02T12:53:41.257Z,5.60
2019-02-02T12:56:13.713Z,5.60
2019-02-02T12:58:42.796Z,5.80
2019-02-02T13:01:18.854Z,5.90
2019-02-02T13:03:47.962Z,6.00
2019-02-02T13:06:17.100Z,5.90
2019-02-02T13:09:02.367Z,5.90
2019-02-02T13:11:38.857Z,6.00
2019-02-02T13:14:20.583Z,6.00
2019-02-02T13:16:50.298Z,6.10
2019-02-02T13:19:24.557Z,6.30
2019-02-02T13:21:54.081Z,6.30
2019-02-02T13:24:23.208Z,6.30
2019-02-02T13:26:58.702Z,6.40
2019-02-02T13:29:28.066Z,6.30
2019-02-02T13:31:57.297Z,6.10
2019-02-02T13:34:26.346Z,6.10
2019-02-02T13:36:55.454Z,6.00
2019-02-02T13:39:24.551Z,6.00
2019-02-02T13:41:53.589Z,6.00
2019-02-02T13:44:22.451Z,6.00
2019-02-02T13:46:53.509Z,5.90
2019-02-02T13:49:23.536Z,5.90
2019-02-02T13:51:52.514Z,5.90
2019-02-02T13:54:25.830Z,5.90
2019-02-02T13:57:03.775Z,5.90
2019-02-02T13:59:32.787Z,6.00
2019-02-02T14:02:07.134Z,6.00
2019-02-02T14:04:38.942Z,5.80
2019-02-02T14:07:17.919Z,5.80
2019-02-02T14:09:38.723Z,5.80
2019-02-02T14:12:07.819Z,5.70
2019-02-02T14:14:36.934Z,5.70
2019-02-02T14:17:06.001Z,5.70
2019-02-02T14:19:34.926Z,5.70
2019-02-02T14:22:03.879Z,5.80
2019-02-02T14:24:32.986Z,6.40
2019-02-02T14:27:02.032Z,6.30
2019-02-02T14:29:30.970Z,6.00
2019-02-02T14:31:59.942Z,5.80
2019-02-02T14:34:39.827Z,5.70
2019-02-02T14:37:01.717Z,5.60
2019-02-02T14:39:39.823Z,5.70
2019-02-02T14:42:09.825Z,5.80
2019-02-02T14:44:38.916Z,5.80
2019-02-02T14:47:19.043Z,5.70
2019-02-02T14:49:48.071Z,5.70
2019-02-02T14:52:29.177Z,5.60
2019-02-02T14:55:05.335Z,5.60
2019-02-02T14:57:34.308Z,5.40
2019-02-02T15:00:06.672Z,5.20
2019-02-02T15:02:36.760Z,5.10
2019-02-02T15:05:07.219Z,5.20
2019-02-02T15:08:00.478Z,5.20
2019-02-02T15:10:31.994Z,5.20
2019-02-02T15:13:01.055Z,5.30
2019-02-02T15:15:33.311Z,5.20
2019-02-02T15:18:03.507Z,5.20
2019-02-02T15:20:34.856Z,5.10
2019-02-02T15:23:06.876Z,5.10
2019-02-02T15:25:35.891Z,5.10
2019-02-02T15:28:05.324Z,4.90
2019-02-02T15:30:34.794Z,4.90
2019-02-02T15:33:03.761Z,4.70
2019-02-02T15:35:32.790Z,4.70
2019-02-02T15:38:01.994Z,4.70
2019-02-02T15:40:31.805Z,4.70
2019-02-02T15:43:01.117Z,4.60
2019-02-02T15:45:30.789Z,4.60
2019-02-02T15:47:59.725Z,4.40
2019-02-02T15:50:28.732Z,4.40
2019-02-02T15:52:57.731Z,4.50
2019-02-02T15:55:26.750Z,4.40
2019-02-02T15:58:02.971Z,4.40
2019-02-02T16:00:34.160Z,4.40
2019-02-02T16:03:09.362Z,4.30
2019-02-02T16:05:44.442Z,4.20
2019-02-02T16:08:21.391Z,4.10
2019-02-02T16:11:07.058Z,4.10
2019-02-02T16:13:42.127Z,4.10
2019-02-02T16:16:12.269Z,4.00
2019-02-02T16:18:41.265Z,4.00
2019-02-02T16:21:11.777Z,4.00
2019-02-02T16:23:46.950Z,4.00
2019-02-02T16:26:16.150Z,4.00
2019-02-02T16:28:45.109Z,4.00
2019-02-02T16:31:23.168Z,3.80
2019-02-02T16:34:02.358Z,3.80
2019-02-02T16:36:27.050Z,3.80
2019-02-02T16:38:56.079Z,3.80
2019-02-02T16:41:28.389Z,3.70
2019-02-02T16:43:57.334Z,3.60
2019-02-02T16:46:26.191Z,3.60
2019-02-02T16:48:55.129Z,3.50
2019-02-02T16:51:24.109Z,3.50
2019-02-02T16:53:52.973Z,3.40
2019-02-02T16:56:21.989Z,3.40
2019-02-02T16:58:51.997Z,3.30
2019-02-02T17:01:21.026Z,3.30
2019-02-02T17:03:49.887Z,3.30
2019-02-02T17:06:20.105Z,3.30
2019-02-02T17:08:49.032Z,3.20
2019-02-02T17:11:18.045Z,3.30
2019-02-02T17:13:47.071Z,3.20
2019-02-02T17:16:16.097Z,3.20
2019-02-02T17:18:45.109Z,3.20
2019-02-02T17:21:14.090Z,3.20
2019-02-02T17:23:43.110Z,3.20
2019-02-02T17:26:12.579Z,3.10
2019-02-02T17:28:41.602Z,3.20
2019-02-02T17:31:11.541Z,3.30
2019-02-02T17:33:40.662Z,3.10
2019-02-02T17:36:10.019Z,3.10
2019-02-02T17:38:38.979Z,3.30
2019-02-02T17:41:08.014Z,3.20
2019-02-02T17:43:38.969Z,3.20
2019-02-02T17:46:07.964Z,3.30
2019-02-02T17:48:36.872Z,3.20
2019-02-02T17:51:05.905Z,3.20
2019-02-02T17:53:43.850Z,3.20
2019-02-02T17:56:14.035Z,3.30
2019-02-02T17:58:43.333Z,3.30
2019-02-02T18:01:12.359Z,3.40
2019-02-02T18:03:41.382Z,3.40
2019-02-02T18:06:10.368Z,3.50
2019-02-02T18:08:39.407Z,3.50
2019-02-02T18:11:08.376Z,3.60
2019-02-02T18:13:37.299Z,3.60
2019-02-02T18:16:06.349Z,3.80
2019-02-02T18:18:35.199Z,3.80
2019-02-02T18:21:04.468Z,3.70
2019-02-02T18:23:33.314Z,3.80
2019-02-02T18:26:02.309Z,3.70
2019-02-02T18:28:31.216Z,3.70
2019-02-02T18:31:00.189Z,3.80
2019-02-02T18:33:29.128Z,3.80
2019-02-02T18:35:58.027Z,3.80
2019-02-02T18:38:27.073Z,3.80
2019-02-02T18:40:56.001Z,3.80
2019-02-02T18:43:24.918Z,3.80
2019-02-02T18:45:53.825Z,3.80
2019-02-02T18:48:22.917Z,3.80
2019-02-02T18:50:51.940Z,3.90
2019-02-02T18:53:21.017Z,3.90
2019-02-02T18:55:56.424Z,3.90
2019-02-02T18:58:28.474Z,3.90
2019-02-02T19:00:57.488Z,3.90
2019-02-02T19:03:26.491Z,4.00
2019-02-02T19:05:55.317Z,3.90
2019-02-02T19:08:24.206Z,3.90
2019-02-02T19:10:53.186Z,3.90
2019-02-02T19:13:22.930Z,3.90
2019-02-02T19:15:55.965Z,3.90
2019-02-02T19:18:25.466Z,3.90
2019-02-02T19:20:54.466Z,3.90
2019-02-02T19:23:25.223Z,3.90
2019-02-02T19:25:54.039Z,3.80
2019-02-02T19:28:22.957Z,3.80
2019-02-02T19:30:53.669Z,3.90
2019-02-02T19:33:28.554Z,4.00
2019-02-02T19:35:57.490Z,4.00
2019-02-02T19:38:26.499Z,4.00
2019-02-02T19:40:55.558Z,3.90
2019-02-02T19:43:24.498Z,4.00
2019-02-02T19:45:53.900Z,4.00
2019-02-02T19:48:23.158Z,3.90
2019-02-02T19:50:52.164Z,4.00
2019-02-02T19:53:21.943Z,3.90
2019-02-02T19:55:51.017Z,3.90
2019-02-02T19:58:20.014Z,3.90
2019-02-02T20:00:48.951Z,3.80
2019-02-02T20:03:17.942Z,3.90
2019-02-02T20:05:46.956Z,3.90
2019-02-02T20:08:15.903Z,3.90
2019-02-02T20:10:44.881Z,3.90
2019-02-02T20:13:13.991Z,3.90
2019-02-02T20:15:42.999Z,3.90
2019-02-02T20:18:12.064Z,3.90
2019-02-02T20:20:41.046Z,3.80
2019-02-02T20:23:10.079Z,3.80
2019-02-02T20:25:39.090Z,3.90
2019-02-02T20:28:08.101Z,3.90
2019-02-02T20:30:37.027Z,3.70
2019-02-02T20:33:06.174Z,3.70
2019-02-02T20:35:42.174Z,3.80
2019-02-02T20:38:06.198Z,3.70
2019-02-02T20:40:35.199Z,3.70
2019-02-02T20:43:04.321Z,3.70
2019-02-02T20:45:34.615Z,3.80
2019-02-02T20:48:03.630Z,3.90
2019-02-02T20:50:32.682Z,3.90
2019-02-02T20:53:01.769Z,3.90
2019-02-02T20:55:36.241Z,3.90
2019-02-02T20:58:05.779Z,3.90
2019-02-02T21:00:34.782Z,3.90
2019-02-02T21:03:08.801Z,3.80
2019-02-02T21:05:37.861Z,3.80
2019-02-02T21:08:13.961Z,3.90
2019-02-02T21:10:44.609Z,3.80
2019-02-02T21:13:13.958Z,3.90
2019-02-02T21:15:42.969Z,4.00
2019-02-02T21:18:13.054Z,3.90
2019-02-02T21:20:42.071Z,3.90
2019-02-02T21:23:11.071Z,3.80
2019-02-02T21:25:43.240Z,3.80
2019-02-02T21:28:21.144Z,3.70
2019-02-02T21:30:52.529Z,3.70
2019-02-02T21:33:22.899Z,3.60
2019-02-02T21:36:03.490Z,3.70
2019-02-02T21:38:32.944Z,3.60
2019-02-02T21:41:03.879Z,3.60
2019-02-02T21:43:35.982Z,3.60
2019-02-02T21:46:14.265Z,3.60
2019-02-02T21:49:01.338Z,3.50
2019-02-02T21:51:48.465Z,3.60
2019-02-02T21:54:30.043Z,3.70
2019-02-02T21:57:02.790Z,3.70
2019-02-02T21:59:34.137Z,3.80
2019-02-02T22:02:03.051Z,3.70
2019-02-02T22:04:43.233Z,3.70
2019-02-02T22:07:14.605Z,3.60
2019-02-02T22:09:55.725Z,3.70
2019-02-02T22:12:36.742Z,3.80
2019-02-02T22:15:07.789Z,3.60
2019-02-02T22:17:37.887Z,3.70
2019-02-02T22:20:09.826Z,3.70
2019-02-02T22:22:42.993Z,3.70
2019-02-02T22:25:25.903Z,3.50
2019-02-02T22:28:02.993Z,3.60
2019-02-02T22:30:33.833Z,3.50
2019-02-02T22:33:04.010Z,3.40
2019-02-02T22:35:42.141Z,3.50
2019-02-02T22:38:11.152Z,3.40
2019-02-02T22:40:42.213Z,3.50
2019-02-02T22:43:27.396Z,3.60
2019-02-02T22:46:14.202Z,3.60
2019-02-02T22:48:44.535Z,3.50
2019-02-02T22:51:16.474Z,3.50
2019-02-02T22:53:46.474Z,3.50
2019-02-02T22:56:15.573Z,3.50
2019-02-02T22:58:44.634Z,3.50
2019-02-02T23:01:38.366Z,3.50
2019-02-02T23:04:57.969Z,3.40
2019-02-02T23:08:04.209Z,3.50
2019-02-02T23:11:10.951Z,3.50
2019-02-02T23:14:41.284Z,3.60
2019-02-02T23:17:12.321Z,3.60
2019-02-02T23:19:41.408Z,3.50
2019-02-02T23:22:10.499Z,3.30
2019-02-02T23:24:40.470Z,3.40
2019-02-02T23:27:16.533Z,3.60
2019-02-02T23:29:46.453Z,3.60
2019-02-02T23:32:15.481Z,3.60
2019-02-02T23:34:44.516Z,3.60
2019-02-02T23:37:13.589Z,3.60
2019-02-02T23:39:42.510Z,3.50
2019-02-02T23:42:11.554Z,3.50
2019-02-02T23:44:41.557Z,3.50
2019-02-02T23:47:10.420Z,3.50
2019-02-02T23:49:41.442Z,3.60
2019-02-02T23:52:16.353Z,3.40
2019-02-02T23:54:45.430Z,3.30
2019-02-02T23:57:14.425Z,3.30
2019-02-02T23:59:43.449Z,3.30
